Time;durP1;ratioP1;P1;durP2;ratioP2;P2;SDS_P1;SDS_P2;PMS_P1;PMS_P2;Temp;Humidity;BMP_temperature;BMP_pressure;BME280_temperature;BME280_humidity;BME280_pressure;Samples;Min_cycle;Max_cycle;Signal;HPM_P1;HPM_P2
2023/05/29 00:00:07;;;;;;;11.50;5.43;;;;;;;;;;7362644;19;20110;-77
2023/05/29 00:02:33;;;;;;;17.95;6.03;;;;;;;;;;7350903;19;20134;-77
2023/05/29 00:04:59;;;;;;;13.70;5.95;;;;;;;;;;7359024;19;20011;-76
2023/05/29 00:07:24;;;;;;;13.82;5.57;;;;;;;;;;7357810;19;19999;-76
2023/05/29 00:09:49;;;;;;;14.90;5.78;;;;;;;;;;7360508;19;20025;-77
2023/05/29 00:12:14;;;;;;;13.43;5.70;;;;;;;;;;7360335;19;19999;-78
2023/05/29 00:14:40;;;;;;;13.98;5.55;;;;;;;;;;7359563;19;20022;-77
2023/05/29 00:17:06;;;;;;;10.80;5.03;;;;;;;;;;7351929;19;19999;-76
2023/05/29 00:19:31;;;;;;;17.35;6.50;;;;;;;;;;7363948;19;20025;-76
2023/05/29 00:21:56;;;;;;;14.30;6.70;;;;;;;;;;7362229;19;20040;-77
2023/05/29 00:24:21;;;;;;;17.85;6.13;;;;;;;;;;7361187;19;20026;-77
2023/05/29 00:26:46;;;;;;;16.00;6.17;;;;;;;;;;7352212;19;19991;-76
2023/05/29 00:29:12;;;;;;;15.18;5.95;;;;;;;;;;7365373;19;20007;-76
2023/05/29 00:31:37;;;;;;;14.40;6.27;;;;;;;;;;7356148;19;20010;-77
2023/05/29 00:34:02;;;;;;;13.07;6.07;;;;;;;;;;7362807;19;20766;-77
2023/05/29 00:36:29;;;;;;;14.20;6.37;;;;;;;;;;7351813;19;19995;-77
2023/05/29 00:38:54;;;;;;;12.68;5.90;;;;;;;;;;7364698;19;20461;-78
2023/05/29 00:41:20;;;;;;;13.00;5.70;;;;;;;;;;7354093;19;20010;-77
2023/05/29 00:43:45;;;;;;;14.23;6.03;;;;;;;;;;7356562;19;20017;-77
2023/05/29 00:46:12;;;;;;;12.93;6.50;;;;;;;;;;7359749;19;19999;-77
2023/05/29 00:48:37;;;;;;;14.35;6.55;;;;;;;;;;7341699;19;20009;-78
2023/05/29 00:51:02;;;;;;;13.43;6.33;;;;;;;;;;7363578;19;19999;-77
2023/05/29 00:53:28;;;;;;;14.35;5.88;;;;;;;;;;7349717;19;20985;-78
2023/05/29 00:55:53;;;;;;;15.65;7.13;;;;;;;;;;7353850;19;20015;-78
2023/05/29 00:58:19;;;;;;;15.98;7.25;;;;;;;;;;7365102;19;20002;-78
2023/05/29 01:00:44;;;;;;;15.45;7.15;;;;;;;;;;7363273;19;20392;-78
2023/05/29 01:03:14;;;;;;;16.38;7.20;;;;;;;;;;7361580;19;20009;-78
2023/05/29 01:05:40;;;;;;;13.55;6.63;;;;;;;;;;7353974;19;20355;-78
2023/05/29 01:08:05;;;;;;;19.65;7.28;;;;;;;;;;7362342;19;20079;-77
2023/05/29 01:10:31;;;;;;;17.85;7.47;;;;;;;;;;7363944;19;20032;-78
2023/05/29 01:13:02;;;;;;;13.43;7.00;;;;;;;;;;7363298;19;20090;-79
2023/05/29 01:15:31;;;;;;;15.88;6.68;;;;;;;;;;7359611;19;20002;-78
2023/05/29 01:17:56;;;;;;;15.70;6.63;;;;;;;;;;7356609;19;20062;-80
2023/05/29 01:20:27;;;;;;;15.57;7.27;;;;;;;;;;7360013;19;20028;-77
2023/05/29 01:22:58;;;;;;;17.30;7.22;;;;;;;;;;7364984;19;20025;-79
2023/05/29 01:25:33;;;;;;;14.48;7.03;;;;;;;;;;7366124;19;20027;-79
2023/05/29 01:28:01;;;;;;;18.25;7.32;;;;;;;;;;7363856;19;20102;-77
2023/05/29 01:30:28;;;;;;;18.48;7.30;;;;;;;;;;7351550;19;20326;-80
2023/05/29 01:32:53;;;;;;;17.20;7.57;;;;;;;;;;7358738;19;20373;-79
2023/05/29 01:35:18;;;;;;;18.35;7.13;;;;;;;;;;7365475;19;20013;-78
2023/05/29 01:37:43;;;;;;;16.52;6.80;;;;;;;;;;7364167;19;19994;-76
2023/05/29 01:40:09;;;;;;;15.57;7.60;;;;;;;;;;7367213;19;19990;-77
2023/05/29 01:42:34;;;;;;;15.45;7.70;;;;;;;;;;7357136;19;20270;-77
2023/05/29 01:45:00;;;;;;;15.32;7.50;;;;;;;;;;7360649;19;19999;-79
2023/05/29 01:47:26;;;;;;;16.42;7.28;;;;;;;;;;7359653;19;20030;-80
2023/05/29 01:49:51;;;;;;;19.00;7.75;;;;;;;;;;7323129;19;20003;-81
2023/05/29 01:52:17;;;;;;;14.52;6.93;;;;;;;;;;7298329;19;20323;-80
2023/05/29 01:54:43;;;;;;;15.65;7.45;;;;;;;;;;7296711;19;19999;-80
2023/05/29 01:57:08;;;;;;;19.15;8.85;;;;;;;;;;7308117;19;20300;-80
2023/05/29 01:59:35;;;;;;;18.13;8.05;;;;;;;;;;7311251;19;19999;-80
2023/05/29 02:02:07;;;;;;;17.52;7.20;;;;;;;;;;7306589;19;20010;-78
2023/05/29 02:04:32;;;;;;;14.30;7.50;;;;;;;;;;7303432;19;20001;-81
2023/05/29 02:06:57;;;;;;;13.70;7.80;;;;;;;;;;7308635;19;19999;-77
2023/05/29 02:09:23;;;;;;;20.98;7.68;;;;;;;;;;7312474;19;20977;-79
2023/05/29 02:11:48;;;;;;;15.30;7.60;;;;;;;;;;7307096;19;20314;-80
2023/05/29 02:14:13;;;;;;;16.63;7.38;;;;;;;;;;7302877;19;20010;-79
2023/05/29 02:16:40;;;;;;;15.50;8.32;;;;;;;;;;7288955;19;20726;-78
2023/05/29 02:19:05;;;;;;;18.40;8.35;;;;;;;;;;7283830;19;20003;-80
2023/05/29 02:21:31;;;;;;;16.90;7.97;;;;;;;;;;7290483;19;20225;-80
2023/05/29 02:23:56;;;;;;;14.95;8.13;;;;;;;;;;7294191;19;20775;-77
2023/05/29 02:26:22;;;;;;;16.65;7.40;;;;;;;;;;7295034;19;20005;-78
2023/05/29 02:28:48;;;;;;;17.40;7.40;;;;;;;;;;7291627;19;20253;-78
2023/05/29 02:31:13;;;;;;;16.98;7.57;;;;;;;;;;7289520;19;20325;-81
2023/05/29 02:33:38;;;;;;;17.03;8.00;;;;;;;;;;7299513;19;20505;-80
2023/05/29 02:36:03;;;;;;;22.30;8.60;;;;;;;;;;7295855;19;20240;-78
2023/05/29 02:38:29;;;;;;;20.13;8.50;;;;;;;;;;7295772;19;20505;-80
2023/05/29 02:40:54;;;;;;;18.50;8.48;;;;;;;;;;7290944;19;20081;-80
2023/05/29 02:43:21;;;;;;;18.40;8.07;;;;;;;;;;7303651;19;20470;-80
2023/05/29 02:45:46;;;;;;;14.43;7.47;;;;;;;;;;7291569;19;20002;-79
2023/05/29 02:48:11;;;;;;;19.25;8.27;;;;;;;;;;7292956;19;20006;-79
2023/05/29 02:50:37;;;;;;;16.67;7.55;;;;;;;;;;7354194;19;20023;-76
2023/05/29 02:53:02;;;;;;;14.00;7.83;;;;;;;;;;7359358;19;20317;-76
2023/05/29 02:55:27;;;;;;;15.40;7.97;;;;;;;;;;7363553;19;20397;-77
2023/05/29 02:57:55;;;;;;;13.95;7.60;;;;;;;;;;7367990;19;19998;-80
2023/05/29 03:00:20;;;;;;;20.77;8.27;;;;;;;;;;7367035;19;20117;-76
2023/05/29 03:02:46;;;;;;;15.10;7.72;;;;;;;;;;7367990;19;20098;-80
2023/05/29 03:05:11;;;;;;;18.42;8.52;;;;;;;;;;7367308;19;20070;-78
2023/05/29 03:07:36;;;;;;;17.27;7.25;;;;;;;;;;7373705;19;20130;-77
2023/05/29 03:10:03;;;;;;;15.47;7.67;;;;;;;;;;7373946;19;20134;-77
2023/05/29 03:12:29;;;;;;;15.55;7.70;;;;;;;;;;7366842;19;19998;-76
2023/05/29 03:14:56;;;;;;;17.60;8.15;;;;;;;;;;7365604;19;20344;-76
2023/05/29 03:17:21;;;;;;;15.75;7.50;;;;;;;;;;7365539;19;20063;-79
2023/05/29 03:19:46;;;;;;;18.40;8.18;;;;;;;;;;7365006;19;20123;-79
2023/05/29 03:22:12;;;;;;;19.85;8.55;;;;;;;;;;7371630;19;19999;-78
2023/05/29 03:24:37;;;;;;;20.90;8.33;;;;;;;;;;7370531;19;20002;-77
2023/05/29 03:27:03;;;;;;;20.67;9.05;;;;;;;;;;7365458;19;20332;-78
2023/05/29 03:29:28;;;;;;;19.30;8.95;;;;;;;;;;7368131;19;20002;-80
2023/05/29 03:31:54;;;;;;;17.40;8.57;;;;;;;;;;7363961;19;20029;-80
2023/05/29 03:34:20;;;;;;;16.23;8.07;;;;;;;;;;7369783;19;20023;-78
2023/05/29 03:36:46;;;;;;;23.73;8.02;;;;;;;;;;7371061;19;20530;-79
2023/05/29 03:39:12;;;;;;;15.73;7.95;;;;;;;;;;7372434;19;20007;-77
2023/05/29 03:41:37;;;;;;;17.70;8.57;;;;;;;;;;7363919;19;20360;-78
2023/05/29 03:44:02;;;;;;;18.87;8.50;;;;;;;;;;7367067;19;20059;-77
2023/05/29 03:46:27;;;;;;;16.15;8.43;;;;;;;;;;7369554;19;20462;-81
2023/05/29 03:48:52;;;;;;;17.27;8.27;;;;;;;;;;7353606;19;20344;-80
2023/05/29 03:51:17;;;;;;;19.83;7.73;;;;;;;;;;7372450;19;20647;-80
2023/05/29 03:53:43;;;;;;;18.83;8.30;;;;;;;;;;7370882;19;20014;-79
2023/05/29 03:56:08;;;;;;;18.20;8.65;;;;;;;;;;7367364;19;20026;-78
2023/05/29 03:58:33;;;;;;;17.17;8.73;;;;;;;;;;7369985;19;20103;-81
2023/05/29 04:00:58;;;;;;;22.67;8.95;;;;;;;;;;7370095;19;20259;-76
2023/05/29 04:03:23;;;;;;;19.33;8.73;;;;;;;;;;7369735;19;20015;-82
2023/05/29 04:05:48;;;;;;;21.80;9.13;;;;;;;;;;7363496;19;20227;-79
2023/05/29 04:08:14;;;;;;;21.23;9.57;;;;;;;;;;7366916;19;20231;-77
2023/05/29 04:10:39;;;;;;;18.30;8.73;;;;;;;;;;7371821;19;20239;-78
2023/05/29 04:13:06;;;;;;;16.70;8.20;;;;;;;;;;7369109;19;20259;-78
2023/05/29 04:15:33;;;;;;;20.08;9.02;;;;;;;;;;7369116;19;20550;-77
2023/05/29 04:17:58;;;;;;;19.95;8.77;;;;;;;;;;7367565;19;20013;-79
2023/05/29 04:20:23;;;;;;;15.70;8.50;;;;;;;;;;7362428;19;19994;-80
2023/05/29 04:22:48;;;;;;;17.23;7.70;;;;;;;;;;7368516;19;20034;-77
2023/05/29 04:25:13;;;;;;;17.63;8.27;;;;;;;;;;7368509;19;20787;-78
2023/05/29 04:27:38;;;;;;;17.73;8.77;;;;;;;;;;7368823;19;20854;-81
2023/05/29 04:30:05;;;;;;;17.30;7.83;;;;;;;;;;7366842;19;20431;-80
2023/05/29 04:32:30;;;;;;;14.55;8.43;;;;;;;;;;7369273;19;20685;-78
2023/05/29 04:34:55;;;;;;;14.20;7.15;;;;;;;;;;7365211;19;20110;-79
2023/05/29 04:37:28;;;;;;;13.50;7.00;;;;;;;;;;7370526;19;20018;-79
2023/05/29 04:39:54;;;;;;;17.90;8.43;;;;;;;;;;7371673;19;20002;-79
2023/05/29 04:42:19;;;;;;;17.17;7.40;;;;;;;;;;7368752;19;20445;-83
2023/05/29 04:44:44;;;;;;;14.03;6.93;;;;;;;;;;7370439;19;20236;-80
2023/05/29 04:47:09;;;;;;;14.70;7.15;;;;;;;;;;7370003;19;20066;-78
2023/05/29 04:49:34;;;;;;;13.47;6.90;;;;;;;;;;7370225;19;19995;-79
2023/05/29 04:52:00;;;;;;;12.07;6.95;;;;;;;;;;7369016;19;19997;-78
2023/05/29 04:54:25;;;;;;;14.75;7.18;;;;;;;;;;7367783;19;20489;-80
2023/05/29 04:56:50;;;;;;;17.07;6.53;;;;;;;;;;7367638;19;19995;-82
2023/05/29 04:59:15;;;;;;;12.90;6.90;;;;;;;;;;7372706;19;20002;-76
2023/05/29 05:01:43;;;;;;;15.30;6.88;;;;;;;;;;7369096;19;20454;-79
2023/05/29 05:04:08;;;;;;;11.68;6.18;;;;;;;;;;7366740;19;20026;-80
2023/05/29 05:06:33;;;;;;;14.02;7.22;;;;;;;;;;7371931;19;20730;-75
2023/05/29 05:08:58;;;;;;;13.20;5.67;;;;;;;;;;7371191;19;19998;-80
2023/05/29 05:11:24;;;;;;;10.10;6.10;;;;;;;;;;7373820;19;20020;-75
2023/05/29 05:13:50;;;;;;;13.80;6.00;;;;;;;;;;7371191;19;20247;-75
2023/05/29 05:16:16;;;;;;;15.10;6.50;;;;;;;;;;7374599;19;20006;-77
2023/05/29 05:18:41;;;;;;;16.05;7.43;;;;;;;;;;7362567;19;20520;-78
2023/05/29 05:21:07;;;;;;;16.10;7.07;;;;;;;;;;7368664;19;20010;-76
2023/05/29 05:23:32;;;;;;;13.27;6.45;;;;;;;;;;7369995;19;20004;-77
2023/05/29 05:25:57;;;;;;;12.82;6.78;;;;;;;;;;7366525;19;20026;-79
2023/05/29 05:28:22;;;;;;;15.53;6.60;;;;;;;;;;7371197;19;20013;-77
2023/05/29 05:30:47;;;;;;;16.25;6.93;;;;;;;;;;7373986;19;20359;-76
2023/05/29 05:33:13;;;;;;;14.20;6.18;;;;;;;;;;7376342;19;19998;-77
2023/05/29 05:35:38;;;;;;;16.67;6.43;;;;;;;;;;7375012;19;20041;-77
2023/05/29 05:38:03;;;;;;;16.65;6.30;;;;;;;;;;7375470;19;20422;-80
2023/05/29 05:40:29;;;;;;;12.30;6.10;;;;;;;;;;7380781;19;20025;-76
2023/05/29 05:42:54;;;;;;;15.77;7.13;;;;;;;;;;7376615;19;20297;-79
2023/05/29 05:45:19;;;;;;;15.80;6.18;;;;;;;;;;7378108;19;20718;-78
2023/05/29 05:47:46;;;;;;;13.00;5.67;;;;;;;;;;7382013;19;19994;-77
2023/05/29 05:50:11;;;;;;;13.95;6.07;;;;;;;;;;7379102;19;20288;-81
2023/05/29 05:52:36;;;;;;;13.60;6.23;;;;;;;;;;7377587;19;20015;-76
2023/05/29 05:55:03;;;;;;;13.18;6.72;;;;;;;;;;7380712;19;20055;-75
2023/05/29 05:57:28;;;;;;;14.30;5.82;;;;;;;;;;7377747;19;20424;-76
2023/05/29 05:59:53;;;;;;;11.88;6.10;;;;;;;;;;7384804;19;20005;-77
2023/05/29 06:02:18;;;;;;;15.47;5.93;;;;;;;;;;7385865;19;20099;-75
2023/05/29 06:04:43;;;;;;;14.63;5.70;;;;;;;;;;7383084;19;20251;-74
2023/05/29 06:07:08;;;;;;;12.27;5.80;;;;;;;;;;7381517;19;20002;-78
2023/05/29 06:09:34;;;;;;;14.13;5.83;;;;;;;;;;7384249;19;20235;-76
2023/05/29 06:11:59;;;;;;;12.60;5.67;;;;;;;;;;7379682;19;20256;-76
2023/05/29 06:14:25;;;;;;;11.93;6.00;;;;;;;;;;7382818;19;20227;-75
2023/05/29 06:16:50;;;;;;;12.32;5.53;;;;;;;;;;7384615;19;20411;-74
2023/05/29 06:19:16;;;;;;;14.65;6.30;;;;;;;;;;7383486;19;20378;-76
2023/05/29 06:21:41;;;;;;;11.88;5.60;;;;;;;;;;7384506;19;20503;-76
2023/05/29 06:24:06;;;;;;;12.80;5.88;;;;;;;;;;7382784;19;20508;-76
2023/05/29 06:26:32;;;;;;;10.05;5.15;;;;;;;;;;7381858;19;20010;-83
2023/05/29 06:28:57;;;;;;;13.52;5.18;;;;;;;;;;7373325;19;20468;-77
2023/05/29 06:31:22;;;;;;;14.20;5.95;;;;;;;;;;7379787;19;20346;-75
2023/05/29 06:33:47;;;;;;;14.00;6.43;;;;;;;;;;7377170;19;20054;-84
2023/05/29 06:36:13;;;;;;;15.23;6.53;;;;;;;;;;7374830;19;20003;-80
2023/05/29 06:38:38;;;;;;;13.55;6.47;;;;;;;;;;7367666;19;20132;-77
2023/05/29 06:41:03;;;;;;;16.27;6.30;;;;;;;;;;7365344;19;20033;-82
2023/05/29 06:43:28;;;;;;;12.40;6.70;;;;;;;;;;7368993;19;20011;-78
2023/05/29 06:45:54;;;;;;;17.07;6.13;;;;;;;;;;7380266;19;20010;-79
2023/05/29 06:48:19;;;;;;;16.48;6.82;;;;;;;;;;7368173;19;20911;-82
2023/05/29 06:50:45;;;;;;;15.00;6.47;;;;;;;;;;7372249;19;19998;-75
2023/05/29 06:53:10;;;;;;;11.25;5.53;;;;;;;;;;7371126;19;19999;-75
2023/05/29 06:55:35;;;;;;;10.67;6.30;;;;;;;;;;7376996;19;20010;-80
2023/05/29 06:58:01;;;;;;;13.37;6.40;;;;;;;;;;7373925;19;20379;-77
2023/05/29 07:00:26;;;;;;;19.00;6.77;;;;;;;;;;7376928;19;20783;-76
2023/05/29 07:02:51;;;;;;;14.60;6.68;;;;;;;;;;7376404;19;20241;-77
2023/05/29 07:05:16;;;;;;;16.50;6.43;;;;;;;;;;7369720;19;20019;-79
2023/05/29 07:07:41;;;;;;;12.32;6.57;;;;;;;;;;7373228;19;20707;-80
2023/05/29 07:10:07;;;;;;;12.20;5.80;;;;;;;;;;7372061;19;19999;-74
2023/05/29 07:12:32;;;;;;;18.30;7.18;;;;;;;;;;7376458;19;20029;-75
2023/05/29 07:14:57;;;;;;;13.93;5.90;;;;;;;;;;7368052;19;20318;-78
2023/05/29 07:17:22;;;;;;;13.05;6.43;;;;;;;;;;7375438;19;20268;-75
2023/05/29 07:19:49;;;;;;;15.20;6.35;;;;;;;;;;7376108;19;20014;-74
2023/05/29 07:22:14;;;;;;;15.45;6.28;;;;;;;;;;7372374;19;20348;-76
2023/05/29 07:24:40;;;;;;;13.23;7.13;;;;;;;;;;7377403;19;20118;-75
2023/05/29 07:27:05;;;;;;;14.52;6.53;;;;;;;;;;7368478;19;20454;-78
2023/05/29 07:29:31;;;;;;;19.70;7.10;;;;;;;;;;7376961;19;20062;-78
2023/05/29 07:31:56;;;;;;;16.33;7.05;;;;;;;;;;7372773;19;20243;-75
2023/05/29 07:34:21;;;;;;;13.32;6.57;;;;;;;;;;7371640;19;20073;-81
2023/05/29 07:36:56;;;;;;;15.27;7.50;;;;;;;;;;7371738;19;19999;-79
2023/05/29 07:39:21;;;;;;;15.68;7.70;;;;;;;;;;7374905;19;19995;-77
2023/05/29 07:41:46;;;;;;;17.98;7.57;;;;;;;;;;7372511;19;20029;-78
2023/05/29 07:44:12;;;;;;;16.40;8.00;;;;;;;;;;7372331;19;20070;-78
2023/05/29 07:46:37;;;;;;;14.43;6.37;;;;;;;;;;7369202;19;20066;-75
2023/05/29 07:49:02;;;;;;;11.87;6.40;;;;;;;;;;7370005;19;19995;-76
2023/05/29 07:51:27;;;;;;;17.35;6.43;;;;;;;;;;7378211;19;19991;-76
2023/05/29 07:53:52;;;;;;;12.77;6.50;;;;;;;;;;7375569;19;20094;-75
2023/05/29 07:56:18;;;;;;;15.97;6.73;;;;;;;;;;7374024;19;20419;-77
2023/05/29 07:58:43;;;;;;;13.07;5.65;;;;;;;;;;7370751;19;20771;-76
2023/05/29 08:01:08;;;;;;;15.53;6.20;;;;;;;;;;7376201;19;20387;-78
2023/05/29 08:03:33;;;;;;;10.40;5.23;;;;;;;;;;7374057;19;20059;-79
2023/05/29 08:05:58;;;;;;;14.20;5.73;;;;;;;;;;7373686;19;20416;-78
2023/05/29 08:08:23;;;;;;;16.23;5.73;;;;;;;;;;7375444;19;20763;-77
2023/05/29 08:10:49;;;;;;;10.97;5.40;;;;;;;;;;7382340;19;19998;-77
2023/05/29 08:13:14;;;;;;;11.93;4.90;;;;;;;;;;7372384;19;20384;-75
2023/05/29 08:15:39;;;;;;;14.50;5.93;;;;;;;;;;7380245;19;20006;-75
2023/05/29 08:18:04;;;;;;;10.13;4.53;;;;;;;;;;7373296;19;20259;-76
2023/05/29 08:20:30;;;;;;;13.27;5.40;;;;;;;;;;7375657;19;20002;-78
2023/05/29 08:22:56;;;;;;;11.27;4.72;;;;;;;;;;7378252;19;20014;-80
2023/05/29 08:25:21;;;;;;;13.85;5.35;;;;;;;;;;7378884;19;20014;-75
2023/05/29 08:27:46;;;;;;;11.77;5.13;;;;;;;;;;7377606;19;20404;-76
2023/05/29 08:30:11;;;;;;;14.63;5.13;;;;;;;;;;7379444;19;20018;-75
2023/05/29 08:32:37;;;;;;;11.60;4.85;;;;;;;;;;7380443;19;20247;-75
2023/05/29 08:35:04;;;;;;;11.10;4.60;;;;;;;;;;7375222;19;20097;-78
2023/05/29 08:37:29;;;;;;;12.63;4.90;;;;;;;;;;7367954;19;20383;-75
2023/05/29 08:39:54;;;;;;;12.07;4.45;;;;;;;;;;7381118;19;20122;-80
2023/05/29 08:42:43;;;;;;;15.23;4.60;;;;;;;;;;7375366;19;20395;-78
2023/05/29 08:45:09;;;;;;;12.15;4.95;;;;;;;;;;7375048;19;20209;-75
2023/05/29 08:47:35;;;;;;;12.73;4.85;;;;;;;;;;7364741;19;20416;-79
2023/05/29 08:50:01;;;;;;;10.15;4.40;;;;;;;;;;7366247;19;20053;-80
2023/05/29 08:52:29;;;;;;;10.95;4.53;;;;;;;;;;7362928;19;20036;-79
2023/05/29 08:54:54;;;;;;;14.00;4.18;;;;;;;;;;7359062;19;19999;-80
2023/05/29 08:57:20;;;;;;;13.52;4.18;;;;;;;;;;7352350;19;20086;-80
2023/05/29 08:59:46;;;;;;;14.00;4.57;;;;;;;;;;7365820;19;20006;-77
2023/05/29 09:02:11;;;;;;;11.43;4.55;;;;;;;;;;7363598;19;19998;-77
2023/05/29 09:04:37;;;;;;;13.35;4.50;;;;;;;;;;7360986;19;19998;-79
2023/05/29 09:07:02;;;;;;;11.43;4.55;;;;;;;;;;7361850;19;19994;-77
2023/05/29 09:09:28;;;;;;;13.75;4.47;;;;;;;;;;7366202;19;19999;-80
2023/05/29 09:11:53;;;;;;;10.07;4.10;;;;;;;;;;7366140;19;20019;-77
2023/05/29 09:14:48;;;;;;;12.67;4.10;;;;;;;;;;7350871;19;20037;-77
2023/05/29 09:17:13;;;;;;;9.85;3.70;;;;;;;;;;7368259;19;20006;-79
2023/05/29 09:19:40;;;;;;;10.80;4.00;;;;;;;;;;7367089;19;20038;-78
2023/05/29 09:22:07;;;;;;;11.07;4.57;;;;;;;;;;7369235;19;20121;-79
2023/05/29 09:24:33;;;;;;;11.52;4.38;;;;;;;;;;7370638;19;20011;-78
2023/05/29 09:26:59;;;;;;;15.38;4.28;;;;;;;;;;7368171;19;20002;-78
2023/05/29 09:29:24;;;;;;;13.68;4.03;;;;;;;;;;7363681;19;20463;-77
2023/05/29 09:31:50;;;;;;;8.37;3.93;;;;;;;;;;7364096;19;20008;-77
2023/05/29 09:34:15;;;;;;;12.43;4.10;;;;;;;;;;7362789;19;20957;-79
2023/05/29 09:36:41;;;;;;;8.77;3.67;;;;;;;;;;7362576;19;20363;-80
2023/05/29 09:39:09;;;;;;;8.18;3.80;;;;;;;;;;7366564;19;20428;-78
2023/05/29 09:41:35;;;;;;;8.88;3.90;;;;;;;;;;7370331;19;20055;-78
2023/05/29 09:44:00;;;;;;;12.07;3.90;;;;;;;;;;7365918;19;20025;-77
2023/05/29 09:46:26;;;;;;;12.25;4.18;;;;;;;;;;7363500;19;19999;-79
2023/05/29 09:48:51;;;;;;;12.57;3.63;;;;;;;;;;7361358;19;20672;-80
2023/05/29 09:51:21;;;;;;;10.02;3.78;;;;;;;;;;7361260;19;20018;-78
2023/05/29 09:53:47;;;;;;;10.98;3.72;;;;;;;;;;7363550;19;20308;-77
2023/05/29 09:56:15;;;;;;;11.60;4.25;;;;;;;;;;7357269;19;20058;-77
2023/05/29 09:58:45;;;;;;;10.60;3.47;;;;;;;;;;7359880;19;20038;-77
2023/05/29 10:01:11;;;;;;;8.60;3.38;;;;;;;;;;7361375;19;20007;-77
2023/05/29 10:03:36;;;;;;;11.90;3.70;;;;;;;;;;7341743;19;20005;-77
2023/05/29 10:06:02;;;;;;;10.60;3.67;;;;;;;;;;7357601;19;20006;-76
2023/05/29 10:08:29;;;;;;;15.02;4.10;;;;;;;;;;7359720;19;20252;-76
2023/05/29 10:10:59;;;;;;;9.00;3.45;;;;;;;;;;7358383;19;20003;-76
2023/05/29 10:13:26;;;;;;;14.50;4.18;;;;;;;;;;7361937;19;20041;-76
2023/05/29 10:15:52;;;;;;;10.43;3.63;;;;;;;;;;7370385;19;20013;-77
2023/05/29 10:18:26;;;;;;;10.93;3.50;;;;;;;;;;7374203;19;19999;-77
2023/05/29 10:20:52;;;;;;;15.00;3.90;;;;;;;;;;7375288;19;20033;-76
2023/05/29 10:23:20;;;;;;;12.40;3.85;;;;;;;;;;7373374;19;20010;-76
2023/05/29 10:25:46;;;;;;;15.07;3.58;;;;;;;;;;7371130;19;20432;-78
2023/05/29 10:28:12;;;;;;;10.40;3.55;;;;;;;;;;7364312;19;20516;-77
2023/05/29 10:31:01;;;;;;;9.63;3.65;;;;;;;;;;7373141;19;20011;-77
2023/05/29 10:33:44;;;;;;;9.57;3.53;;;;;;;;;;7366331;19;20469;-76
2023/05/29 10:36:13;;;;;;;10.02;3.80;;;;;;;;;;7363953;19;20026;-76
2023/05/29 10:38:40;;;;;;;9.65;3.55;;;;;;;;;;7371257;19;20002;-76
2023/05/29 10:41:26;;;;;;;11.02;3.50;;;;;;;;;;7370560;19;20002;-79
2023/05/29 10:43:53;;;;;;;9.18;3.50;;;;;;;;;;7366319;19;19999;-79
2023/05/29 10:46:18;;;;;;;12.02;3.67;;;;;;;;;;7370302;19;20014;-78
2023/05/29 10:48:43;;;;;;;10.67;3.20;;;;;;;;;;7355871;19;19999;-77
2023/05/29 10:51:23;;;;;;;11.90;3.63;;;;;;;;;;7363441;19;19998;-77
2023/05/29 10:53:50;;;;;;;11.35;3.90;;;;;;;;;;7372625;19;20294;-77
2023/05/29 10:56:19;;;;;;;11.15;3.58;;;;;;;;;;7361568;19;20025;-77
2023/05/29 10:58:50;;;;;;;13.05;3.65;;;;;;;;;;7363150;19;20007;-77
2023/05/29 11:01:16;;;;;;;11.45;3.97;;;;;;;;;;7369739;19;20007;-78
2023/05/29 11:03:41;;;;;;;10.10;3.65;;;;;;;;;;7369293;19;20030;-78
2023/05/29 11:06:16;;;;;;;12.33;3.50;;;;;;;;;;7355190;19;20090;-78
2023/05/29 11:08:53;;;;;;;14.38;4.13;;;;;;;;;;7361561;19;19998;-76
2023/05/29 11:11:28;;;;;;;11.57;4.40;;;;;;;;;;7346044;19;20022;-78
2023/05/29 11:13:54;;;;;;;9.85;3.78;;;;;;;;;;7369025;19;20062;-77
2023/05/29 11:16:32;;;;;;;15.05;4.03;;;;;;;;;;7366435;19;20019;-75
2023/05/29 11:18:58;;;;;;;13.98;4.60;;;;;;;;;;7369554;19;20019;-77
2023/05/29 11:21:38;;;;;;;12.35;4.25;;;;;;;;;;7373336;19;19999;-76
2023/05/29 11:24:06;;;;;;;12.40;4.38;;;;;;;;;;7368631;19;20002;-76
2023/05/29 11:26:32;;;;;;;14.32;4.20;;;;;;;;;;7371237;19;20009;-78
2023/05/29 11:28:58;;;;;;;11.80;3.78;;;;;;;;;;7368973;19;20024;-78
2023/05/29 11:31:24;;;;;;;14.68;5.13;;;;;;;;;;7367421;19;20285;-78
2023/05/29 11:33:50;;;;;;;16.88;4.53;;;;;;;;;;7361431;19;20025;-78
2023/05/29 11:36:15;;;;;;;10.90;3.50;;;;;;;;;;7361667;19;20675;-77
2023/05/29 11:38:41;;;;;;;11.65;3.33;;;;;;;;;;7359841;19;19994;-77
2023/05/29 11:41:06;;;;;;;9.47;3.40;;;;;;;;;;7358215;19;20361;-78
2023/05/29 11:43:32;;;;;;;9.77;3.37;;;;;;;;;;7366894;19;20283;-78
2023/05/29 11:45:57;;;;;;;11.00;4.03;;;;;;;;;;7368010;19;20143;-78
2023/05/29 11:48:23;;;;;;;10.93;3.43;;;;;;;;;;7359035;19;20324;-78
2023/05/29 11:50:49;;;;;;;11.65;3.80;;;;;;;;;;7363816;19;20006;-78
2023/05/29 11:53:14;;;;;;;12.20;4.25;;;;;;;;;;7366960;19;19999;-78
2023/05/29 11:55:39;;;;;;;12.27;3.70;;;;;;;;;;7364542;19;20009;-77
2023/05/29 11:58:05;;;;;;;11.88;3.38;;;;;;;;;;7361182;19;20010;-79
2023/05/29 12:00:34;;;;;;;9.68;3.38;;;;;;;;;;7364206;19;20007;-78
2023/05/29 12:03:06;;;;;;;9.93;3.72;;;;;;;;;;7363547;19;20157;-76
2023/05/29 12:05:32;;;;;;;11.02;3.70;;;;;;;;;;7361298;19;20125;-77
2023/05/29 12:07:57;;;;;;;10.55;3.53;;;;;;;;;;7369159;19;20005;-77
2023/05/29 12:10:23;;;;;;;13.93;3.90;;;;;;;;;;7360299;19;20032;-77
2023/05/29 12:12:56;;;;;;;11.15;3.85;;;;;;;;;;7356498;19;20007;-78
2023/05/29 12:15:21;;;;;;;13.52;3.70;;;;;;;;;;7354246;19;20098;-77
2023/05/29 12:17:47;;;;;;;11.80;3.97;;;;;;;;;;7362686;19;20131;-78
2023/05/29 12:20:14;;;;;;;10.32;3.78;;;;;;;;;;7345941;19;20037;-78
2023/05/29 12:22:40;;;;;;;12.85;3.55;;;;;;;;;;7356976;19;20278;-78
2023/05/29 12:25:06;;;;;;;11.32;4.03;;;;;;;;;;7355081;19;20030;-79
2023/05/29 12:27:31;;;;;;;11.65;4.13;;;;;;;;;;7348722;19;20034;-78
2023/05/29 12:30:03;;;;;;;11.05;4.28;;;;;;;;;;7359296;19;20350;-79
2023/05/29 12:32:38;;;;;;;8.60;3.20;;;;;;;;;;7362496;19;20007;-77
2023/05/29 12:35:13;;;;;;;11.98;3.70;;;;;;;;;;7361352;19;20009;-78
2023/05/29 12:37:45;;;;;;;10.82;3.45;;;;;;;;;;7354562;19;20006;-79
2023/05/29 12:40:16;;;;;;;12.07;3.47;;;;;;;;;;7353923;19;20515;-78
2023/05/29 12:42:42;;;;;;;18.20;4.78;;;;;;;;;;7367183;19;20007;-78
2023/05/29 12:45:08;;;;;;;13.63;4.45;;;;;;;;;;7365285;19;20077;-79
2023/05/29 12:47:33;;;;;;;17.35;5.03;;;;;;;;;;7365708;19;20332;-80
2023/05/29 12:49:58;;;;;;;13.35;4.47;;;;;;;;;;7348918;19;20022;-78
2023/05/29 12:52:23;;;;;;;13.60;4.77;;;;;;;;;;7360902;19;20459;-78
2023/05/29 12:54:48;;;;;;;18.17;5.03;;;;;;;;;;7364574;19;20110;-79
2023/05/29 12:57:14;;;;;;;16.43;4.83;;;;;;;;;;7352308;19;20111;-79
2023/05/29 12:59:40;;;;;;;16.70;4.47;;;;;;;;;;7363218;19;20058;-79
2023/05/29 13:02:07;;;;;;;15.15;4.50;;;;;;;;;;7348945;19;19998;-78
2023/05/29 13:04:32;;;;;;;15.25;4.13;;;;;;;;;;7344489;19;20439;-81
2023/05/29 13:06:57;;;;;;;12.43;4.53;;;;;;;;;;7366167;19;19999;-77
2023/05/29 13:09:23;;;;;;;15.15;4.63;;;;;;;;;;7362808;19;20082;-79
2023/05/29 13:11:48;;;;;;;15.57;4.53;;;;;;;;;;7367497;19;19995;-79
2023/05/29 13:14:13;;;;;;;17.73;4.57;;;;;;;;;;7360090;19;20440;-79
2023/05/29 13:16:38;;;;;;;15.90;5.28;;;;;;;;;;7368659;19;19999;-78
2023/05/29 13:19:03;;;;;;;17.43;5.20;;;;;;;;;;7359129;19;20011;-78
2023/05/29 13:21:28;;;;;;;13.63;4.60;;;;;;;;;;7365721;19;20400;-77
2023/05/29 13:23:54;;;;;;;15.47;4.57;;;;;;;;;;7364173;19;20471;-79
2023/05/29 13:26:19;;;;;;;20.02;5.10;;;;;;;;;;7350697;19;20006;-78
2023/05/29 13:28:44;;;;;;;13.70;5.17;;;;;;;;;;7356183;19;20405;-79
2023/05/29 13:31:09;;;;;;;14.40;4.63;;;;;;;;;;7359784;19;20003;-77
2023/05/29 13:33:35;;;;;;;16.42;4.68;;;;;;;;;;7360127;19;20009;-79
2023/05/29 13:36:00;;;;;;;13.00;4.85;;;;;;;;;;7344363;19;20019;-78
2023/05/29 13:38:25;;;;;;;15.37;4.90;;;;;;;;;;7355304;19;20845;-78
2023/05/29 13:40:50;;;;;;;15.47;4.53;;;;;;;;;;7349783;19;20019;-78
2023/05/29 13:43:15;;;;;;;13.03;4.03;;;;;;;;;;7362812;19;20483;-79
2023/05/29 13:45:40;;;;;;;10.33;4.03;;;;;;;;;;7356611;19;20005;-78
2023/05/29 13:48:06;;;;;;;18.97;4.10;;;;;;;;;;7328320;19;20473;-79
2023/05/29 13:50:31;;;;;;;13.83;4.43;;;;;;;;;;7352948;19;20018;-79
2023/05/29 13:52:56;;;;;;;14.30;4.40;;;;;;;;;;7359316;19;20603;-79
2023/05/29 13:55:21;;;;;;;17.10;4.47;;;;;;;;;;7368153;19;20306;-77
2023/05/29 13:57:46;;;;;;;26.73;5.43;;;;;;;;;;7367403;19;20090;-79
2023/05/29 14:00:12;;;;;;;16.47;4.57;;;;;;;;;;7329198;19;20235;-79
2023/05/29 14:02:37;;;;;;;16.38;5.05;;;;;;;;;;7351389;19;20022;-79
2023/05/29 14:05:02;;;;;;;15.50;4.57;;;;;;;;;;7351464;19;19991;-79
2023/05/29 14:07:28;;;;;;;12.43;3.90;;;;;;;;;;7362036;19;20203;-79
2023/05/29 14:09:53;;;;;;;11.27;4.50;;;;;;;;;;7361362;19;20402;-79
2023/05/29 14:12:18;;;;;;;13.23;4.35;;;;;;;;;;7362281;19;20002;-79
2023/05/29 14:14:43;;;;;;;17.93;5.00;;;;;;;;;;7367824;19;19998;-78
2023/05/29 14:17:09;;;;;;;14.57;4.40;;;;;;;;;;7356327;19;20240;-78
2023/05/29 14:19:34;;;;;;;13.77;4.60;;;;;;;;;;7363311;19;20280;-78
2023/05/29 14:22:00;;;;;;;13.20;4.10;;;;;;;;;;7369607;19;20009;-79
